sensor_id;sensor_type;location;lat;lon;timestamp;P1;durP1;ratioP1;P2;durP2;ratioP2
5491;SDS011;2768;53.540;10.224;2023-06-26T00:00:54;9.30;;;8.50;;
5491;SDS011;2768;53.540;10.224;2023-06-26T00:06:49;9.57;;;8.40;;
5491;SDS011;2768;53.540;10.224;2023-06-26T00:12:43;9.13;;;8.43;;
5491;SDS011;2768;53.540;10.224;2023-06-26T00:18:36;9.13;;;8.37;;
5491;SDS011;2768;53.540;10.224;2023-06-26T00:24:31;8.70;;;8.00;;
5491;SDS011;2768;53.540;10.224;2023-06-26T00:30:25;10.03;;;9.00;;
5491;SDS011;2768;53.540;10.224;2023-06-26T00:36:21;8.67;;;7.87;;
5491;SDS011;2768;53.540;10.224;2023-06-26T00:42:16;9.53;;;8.73;;
5491;SDS011;2768;53.540;10.224;2023-06-26T00:48:10;8.90;;;8.00;;
5491;SDS011;2768;53.540;10.224;2023-06-26T00:54:04;9.50;;;8.60;;
5491;SDS011;2768;53.540;10.224;2023-06-26T00:59:59;9.00;;;8.30;;
5491;SDS011;2768;53.540;10.224;2023-06-26T01:05:56;9.30;;;8.37;;
5491;SDS011;2768;53.540;10.224;2023-06-26T01:11:50;8.70;;;7.90;;
5491;SDS011;2768;53.540;10.224;2023-06-26T01:17:47;8.63;;;8.00;;
5491;SDS011;2768;53.540;10.224;2023-06-26T01:23:47;9.57;;;8.87;;
5491;SDS011;2768;53.540;10.224;2023-06-26T01:29:51;8.53;;;7.67;;
5491;SDS011;2768;53.540;10.224;2023-06-26T01:35:46;9.73;;;8.60;;
5491;SDS011;2768;53.540;10.224;2023-06-26T01:41:41;9.27;;;8.47;;
5491;SDS011;2768;53.540;10.224;2023-06-26T01:47:36;8.60;;;7.90;;
5491;SDS011;2768;53.540;10.224;2023-06-26T01:53:35;8.50;;;7.80;;
5491;SDS011;2768;53.540;10.224;2023-06-26T01:59:32;8.83;;;8.13;;
5491;SDS011;2768;53.540;10.224;2023-06-26T02:05:27;9.10;;;8.30;;
5491;SDS011;2768;53.540;10.224;2023-06-26T02:11:24;9.20;;;8.13;;
5491;SDS011;2768;53.540;10.224;2023-06-26T02:17:17;8.93;;;7.70;;
5491;SDS011;2768;53.540;10.224;2023-06-26T02:23:12;9.03;;;8.13;;
5491;SDS011;2768;53.540;10.224;2023-06-26T02:29:06;9.17;;;8.37;;
5491;SDS011;2768;53.540;10.224;2023-06-26T02:34:59;8.80;;;8.10;;
5491;SDS011;2768;53.540;10.224;2023-06-26T02:40:54;8.60;;;7.90;;
5491;SDS011;2768;53.540;10.224;2023-06-26T02:46:48;7.90;;;7.20;;
5491;SDS011;2768;53.540;10.224;2023-06-26T02:52:41;8.37;;;7.67;;
5491;SDS011;2768;53.540;10.224;2023-06-26T02:58:36;8.57;;;7.77;;
5491;SDS011;2768;53.540;10.224;2023-06-26T03:04:29;7.73;;;6.97;;
5491;SDS011;2768;53.540;10.224;2023-06-26T03:10:24;7.87;;;7.17;;
5491;SDS011;2768;53.540;10.224;2023-06-26T03:16:20;12.00;;;7.27;;
5491;SDS011;2768;53.540;10.224;2023-06-26T03:22:13;8.27;;;7.47;;
5491;SDS011;2768;53.540;10.224;2023-06-26T03:28:07;8.40;;;7.70;;
5491;SDS011;2768;53.540;10.224;2023-06-26T03:34:02;8.60;;;7.70;;
5491;SDS011;2768;53.540;10.224;2023-06-26T03:39:55;8.17;;;7.37;;
5491;SDS011;2768;53.540;10.224;2023-06-26T03:45:48;8.43;;;7.47;;
5491;SDS011;2768;53.540;10.224;2023-06-26T03:51:44;7.57;;;6.87;;
5491;SDS011;2768;53.540;10.224;2023-06-26T03:57:38;11.13;;;7.13;;
5491;SDS011;2768;53.540;10.224;2023-06-26T04:03:33;7.50;;;6.87;;
5491;SDS011;2768;53.540;10.224;2023-06-26T04:09:28;7.97;;;7.10;;
5491;SDS011;2768;53.540;10.224;2023-06-26T04:21:19;9.90;;;8.33;;
5491;SDS011;2768;53.540;10.224;2023-06-26T04:27:13;6.80;;;6.20;;
5491;SDS011;2768;53.540;10.224;2023-06-26T04:33:07;7.70;;;7.00;;
5491;SDS011;2768;53.540;10.224;2023-06-26T04:39:04;7.20;;;6.53;;
5491;SDS011;2768;53.540;10.224;2023-06-26T04:45:02;7.60;;;6.97;;
5491;SDS011;2768;53.540;10.224;2023-06-26T04:50:57;8.10;;;7.40;;
5491;SDS011;2768;53.540;10.224;2023-06-26T04:56:50;7.90;;;7.20;;
5491;SDS011;2768;53.540;10.224;2023-06-26T05:02:45;7.03;;;6.53;;
5491;SDS011;2768;53.540;10.224;2023-06-26T05:08:39;7.40;;;6.80;;
5491;SDS011;2768;53.540;10.224;2023-06-26T05:14:32;7.57;;;6.87;;
5491;SDS011;2768;53.540;10.224;2023-06-26T05:20:28;7.13;;;6.53;;
5491;SDS011;2768;53.540;10.224;2023-06-26T05:26:22;7.20;;;6.60;;
5491;SDS011;2768;53.540;10.224;2023-06-26T05:32:16;6.67;;;6.17;;
5491;SDS011;2768;53.540;10.224;2023-06-26T05:38:12;7.80;;;7.10;;
5491;SDS011;2768;53.540;10.224;2023-06-26T05:44:06;7.43;;;6.83;;
5491;SDS011;2768;53.540;10.224;2023-06-26T05:50:00;6.77;;;6.17;;
5491;SDS011;2768;53.540;10.224;2023-06-26T05:55:56;9.90;;;6.50;;
5491;SDS011;2768;53.540;10.224;2023-06-26T06:01:49;7.10;;;6.40;;
5491;SDS011;2768;53.540;10.224;2023-06-26T06:07:44;7.30;;;6.40;;
5491;SDS011;2768;53.540;10.224;2023-06-26T06:13:39;7.40;;;6.60;;
5491;SDS011;2768;53.540;10.224;2023-06-26T06:19:33;7.77;;;7.07;;
5491;SDS011;2768;53.540;10.224;2023-06-26T06:25:26;7.37;;;6.67;;
5491;SDS011;2768;53.540;10.224;2023-06-26T06:31:21;7.47;;;6.77;;
5491;SDS011;2768;53.540;10.224;2023-06-26T06:37:15;7.23;;;6.63;;
5491;SDS011;2768;53.540;10.224;2023-06-26T06:43:08;8.60;;;6.63;;
5491;SDS011;2768;53.540;10.224;2023-06-26T06:49:02;7.53;;;6.70;;
5491;SDS011;2768;53.540;10.224;2023-06-26T06:54:56;6.80;;;6.20;;
5491;SDS011;2768;53.540;10.224;2023-06-26T07:00:51;7.33;;;6.73;;
5491;SDS011;2768;53.540;10.224;2023-06-26T07:06:46;8.07;;;7.30;;
5491;SDS011;2768;53.540;10.224;2023-06-26T07:12:39;6.60;;;6.10;;
5491;SDS011;2768;53.540;10.224;2023-06-26T07:18:33;7.47;;;6.63;;
5491;SDS011;2768;53.540;10.224;2023-06-26T07:24:27;7.17;;;6.57;;
5491;SDS011;2768;53.540;10.224;2023-06-26T07:30:21;8.07;;;7.23;;
5491;SDS011;2768;53.540;10.224;2023-06-26T07:36:15;6.93;;;6.33;;
5491;SDS011;2768;53.540;10.224;2023-06-26T07:42:11;6.50;;;6.00;;
5491;SDS011;2768;53.540;10.224;2023-06-26T07:48:05;7.53;;;6.93;;
5491;SDS011;2768;53.540;10.224;2023-06-26T07:54:00;7.10;;;6.50;;
5491;SDS011;2768;53.540;10.224;2023-06-26T07:59:55;7.47;;;6.77;;
5491;SDS011;2768;53.540;10.224;2023-06-26T08:05:49;7.13;;;6.53;;
5491;SDS011;2768;53.540;10.224;2023-06-26T08:11:42;7.80;;;7.10;;
5491;SDS011;2768;53.540;10.224;2023-06-26T08:17:38;6.87;;;6.27;;
5491;SDS011;2768;53.540;10.224;2023-06-26T08:23:31;8.30;;;6.90;;
5491;SDS011;2768;53.540;10.224;2023-06-26T08:29:25;8.00;;;6.53;;
5491;SDS011;2768;53.540;10.224;2023-06-26T08:35:20;7.87;;;7.17;;
5491;SDS011;2768;53.540;10.224;2023-06-26T08:41:13;6.77;;;6.17;;
5491;SDS011;2768;53.540;10.224;2023-06-26T08:47:06;6.70;;;6.20;;
5491;SDS011;2768;53.540;10.224;2023-06-26T08:53:03;7.30;;;6.60;;
5491;SDS011;2768;53.540;10.224;2023-06-26T08:59:04;7.97;;;7.00;;
5491;SDS011;2768;53.540;10.224;2023-06-26T09:04:57;7.00;;;6.43;;
5491;SDS011;2768;53.540;10.224;2023-06-26T09:10:52;8.00;;;7.17;;
5491;SDS011;2768;53.540;10.224;2023-06-26T09:16:45;8.80;;;7.37;;
5491;SDS011;2768;53.540;10.224;2023-06-26T09:22:40;7.80;;;7.10;;
5491;SDS011;2768;53.540;10.224;2023-06-26T09:28:36;8.43;;;7.60;;
5491;SDS011;2768;53.540;10.224;2023-06-26T09:34:31;9.27;;;8.37;;
5491;SDS011;2768;53.540;10.224;2023-06-26T09:40:26;10.07;;;9.17;;
5491;SDS011;2768;53.540;10.224;2023-06-26T09:46:25;11.07;;;9.80;;
5491;SDS011;2768;53.540;10.224;2023-06-26T09:52:19;12.00;;;10.90;;
5491;SDS011;2768;53.540;10.224;2023-06-26T09:58:13;11.27;;;10.10;;
5491;SDS011;2768;53.540;10.224;2023-06-26T10:04:08;12.20;;;11.00;;
5491;SDS011;2768;53.540;10.224;2023-06-26T10:10:03;10.67;;;8.80;;
5491;SDS011;2768;53.540;10.224;2023-06-26T10:15:58;10.50;;;9.43;;
5491;SDS011;2768;53.540;10.224;2023-06-26T10:21:55;14.10;;;10.33;;
5491;SDS011;2768;53.540;10.224;2023-06-26T10:27:50;11.73;;;10.53;;
5491;SDS011;2768;53.540;10.224;2023-06-26T10:33:47;13.37;;;11.97;;
5491;SDS011;2768;53.540;10.224;2023-06-26T10:39:48;19.43;;;17.53;;
5491;SDS011;2768;53.540;10.224;2023-06-26T10:45:44;24.27;;;21.73;;
5491;SDS011;2768;53.540;10.224;2023-06-26T10:51:45;27.30;;;23.50;;
5491;SDS011;2768;53.540;10.224;2023-06-26T10:57:41;12.30;;;11.10;;
5491;SDS011;2768;53.540;10.224;2023-06-26T11:03:41;10.97;;;9.87;;
5491;SDS011;2768;53.540;10.224;2023-06-26T11:09:34;13.43;;;11.10;;
5491;SDS011;2768;53.540;10.224;2023-06-26T11:15:49;11.57;;;10.40;;
5491;SDS011;2768;53.540;10.224;2023-06-26T11:21:43;11.47;;;10.33;;
5491;SDS011;2768;53.540;10.224;2023-06-26T11:27:37;12.47;;;11.20;;
5491;SDS011;2768;53.540;10.224;2023-06-26T11:33:32;11.37;;;10.27;;
5491;SDS011;2768;53.540;10.224;2023-06-26T11:39:26;11.40;;;9.40;;
5491;SDS011;2768;53.540;10.224;2023-06-26T11:45:19;11.40;;;8.43;;
5491;SDS011;2768;53.540;10.224;2023-06-26T11:51:14;9.70;;;7.23;;
5491;SDS011;2768;53.540;10.224;2023-06-26T11:57:12;8.40;;;7.00;;
5491;SDS011;2768;53.540;10.224;2023-06-26T12:03:06;7.40;;;4.90;;
5491;SDS011;2768;53.540;10.224;2023-06-26T12:09:02;7.43;;;4.60;;
5491;SDS011;2768;53.540;10.224;2023-06-26T12:14:57;11.90;;;3.97;;
5491;SDS011;2768;53.540;10.224;2023-06-26T12:20:51;7.97;;;3.73;;
5491;SDS011;2768;53.540;10.224;2023-06-26T12:26:46;5.67;;;3.13;;
5491;SDS011;2768;53.540;10.224;2023-06-26T12:32:44;8.10;;;3.13;;
5491;SDS011;2768;53.540;10.224;2023-06-26T12:38:38;7.30;;;3.33;;
5491;SDS011;2768;53.540;10.224;2023-06-26T12:44:34;4.90;;;2.53;;
5491;SDS011;2768;53.540;10.224;2023-06-26T12:50:36;6.20;;;2.37;;
5491;SDS011;2768;53.540;10.224;2023-06-26T12:56:31;7.80;;;3.30;;
5491;SDS011;2768;53.540;10.224;2023-06-26T13:02:25;15.70;;;3.87;;
5491;SDS011;2768;53.540;10.224;2023-06-26T13:08:19;5.30;;;3.03;;
5491;SDS011;2768;53.540;10.224;2023-06-26T13:14:12;6.53;;;3.27;;
5491;SDS011;2768;53.540;10.224;2023-06-26T13:20:07;4.90;;;2.53;;
5491;SDS011;2768;53.540;10.224;2023-06-26T13:26:01;4.70;;;2.40;;
5491;SDS011;2768;53.540;10.224;2023-06-26T13:31:57;4.70;;;2.37;;
5491;SDS011;2768;53.540;10.224;2023-06-26T13:37:53;5.97;;;2.03;;
5491;SDS011;2768;53.540;10.224;2023-06-26T13:43:46;3.97;;;1.90;;
5491;SDS011;2768;53.540;10.224;2023-06-26T13:49:40;8.07;;;2.60;;
5491;SDS011;2768;53.540;10.224;2023-06-26T13:55:35;3.03;;;2.33;;
5491;SDS011;2768;53.540;10.224;2023-06-26T14:01:29;5.67;;;2.20;;
5491;SDS011;2768;53.540;10.224;2023-06-26T14:07:23;9.73;;;1.97;;
5491;SDS011;2768;53.540;10.224;2023-06-26T14:13:18;2.70;;;1.73;;
5491;SDS011;2768;53.540;10.224;2023-06-26T14:19:14;4.77;;;2.80;;
5491;SDS011;2768;53.540;10.224;2023-06-26T14:25:10;2.60;;;1.60;;
5491;SDS011;2768;53.540;10.224;2023-06-26T14:31:05;4.77;;;1.63;;
5491;SDS011;2768;53.540;10.224;2023-06-26T14:36:58;5.93;;;1.87;;
5491;SDS011;2768;53.540;10.224;2023-06-26T14:42:52;8.97;;;2.27;;
5491;SDS011;2768;53.540;10.224;2023-06-26T14:48:47;5.13;;;1.80;;
5491;SDS011;2768;53.540;10.224;2023-06-26T14:54:42;5.40;;;1.60;;
5491;SDS011;2768;53.540;10.224;2023-06-26T15:00:35;4.00;;;2.47;;
5491;SDS011;2768;53.540;10.224;2023-06-26T15:06:31;3.57;;;2.43;;
5491;SDS011;2768;53.540;10.224;2023-06-26T15:12:25;2.70;;;1.77;;
5491;SDS011;2768;53.540;10.224;2023-06-26T15:18:18;1.70;;;1.50;;
5491;SDS011;2768;53.540;10.224;2023-06-26T15:24:13;3.83;;;1.70;;
5491;SDS011;2768;53.540;10.224;2023-06-26T15:30:07;2.17;;;1.47;;
5491;SDS011;2768;53.540;10.224;2023-06-26T15:36:01;2.47;;;1.50;;
5491;SDS011;2768;53.540;10.224;2023-06-26T15:41:56;2.70;;;1.27;;
5491;SDS011;2768;53.540;10.224;2023-06-26T15:47:50;3.03;;;1.57;;
5491;SDS011;2768;53.540;10.224;2023-06-26T15:53:43;2.93;;;1.47;;
5491;SDS011;2768;53.540;10.224;2023-06-26T15:59:38;3.17;;;1.67;;
5491;SDS011;2768;53.540;10.224;2023-06-26T16:05:31;3.37;;;1.33;;
5491;SDS011;2768;53.540;10.224;2023-06-26T16:11:25;3.90;;;1.57;;
5491;SDS011;2768;53.540;10.224;2023-06-26T16:17:19;3.00;;;1.53;;
5491;SDS011;2768;53.540;10.224;2023-06-26T16:23:12;1.37;;;1.20;;
5491;SDS011;2768;53.540;10.224;2023-06-26T16:29:06;2.00;;;1.20;;
5491;SDS011;2768;53.540;10.224;2023-06-26T16:35:05;2.30;;;1.80;;
5491;SDS011;2768;53.540;10.224;2023-06-26T16:40:59;4.60;;;2.00;;
5491;SDS011;2768;53.540;10.224;2023-06-26T16:46:55;4.30;;;2.00;;
5491;SDS011;2768;53.540;10.224;2023-06-26T16:52:51;2.60;;;1.43;;
5491;SDS011;2768;53.540;10.224;2023-06-26T16:58:44;2.90;;;1.77;;
5491;SDS011;2768;53.540;10.224;2023-06-26T17:04:37;5.73;;;2.00;;
5491;SDS011;2768;53.540;10.224;2023-06-26T17:10:32;4.70;;;2.33;;
5491;SDS011;2768;53.540;10.224;2023-06-26T17:16:25;6.53;;;1.80;;
5491;SDS011;2768;53.540;10.224;2023-06-26T17:22:18;5.13;;;2.40;;
5491;SDS011;2768;53.540;10.224;2023-06-26T17:28:13;4.70;;;1.90;;
5491;SDS011;2768;53.540;10.224;2023-06-26T17:34:07;3.63;;;1.67;;
5491;SDS011;2768;53.540;10.224;2023-06-26T17:40:00;4.97;;;2.40;;
5491;SDS011;2768;53.540;10.224;2023-06-26T17:45:58;4.93;;;2.33;;
5491;SDS011;2768;53.540;10.224;2023-06-26T17:51:52;5.20;;;2.00;;
5491;SDS011;2768;53.540;10.224;2023-06-26T17:57:45;5.90;;;2.40;;
5491;SDS011;2768;53.540;10.224;2023-06-26T18:03:39;4.77;;;2.67;;
5491;SDS011;2768;53.540;10.224;2023-06-26T18:09:33;3.43;;;1.80;;
5491;SDS011;2768;53.540;10.224;2023-06-26T18:15:26;8.97;;;2.30;;
5491;SDS011;2768;53.540;10.224;2023-06-26T18:21:21;7.50;;;2.07;;
5491;SDS011;2768;53.540;10.224;2023-06-26T18:27:16;4.60;;;2.03;;
5491;SDS011;2768;53.540;10.224;2023-06-26T18:33:09;7.17;;;2.50;;
5491;SDS011;2768;53.540;10.224;2023-06-26T18:39:04;5.33;;;2.03;;
5491;SDS011;2768;53.540;10.224;2023-06-26T18:44:58;5.20;;;2.07;;
5491;SDS011;2768;53.540;10.224;2023-06-26T18:50:51;6.87;;;2.80;;
5491;SDS011;2768;53.540;10.224;2023-06-26T18:56:46;4.43;;;2.00;;
5491;SDS011;2768;53.540;10.224;2023-06-26T19:02:39;4.97;;;2.17;;
5491;SDS011;2768;53.540;10.224;2023-06-26T19:08:32;5.73;;;1.97;;
5491;SDS011;2768;53.540;10.224;2023-06-26T19:14:27;4.37;;;2.13;;
5491;SDS011;2768;53.540;10.224;2023-06-26T19:20:21;7.23;;;3.33;;
5491;SDS011;2768;53.540;10.224;2023-06-26T19:26:14;7.57;;;2.30;;
5491;SDS011;2768;53.540;10.224;2023-06-26T19:32:09;7.87;;;2.60;;
5491;SDS011;2768;53.540;10.224;2023-06-26T19:38:02;7.50;;;2.53;;
5491;SDS011;2768;53.540;10.224;2023-06-26T19:43:57;5.23;;;2.50;;
5491;SDS011;2768;53.540;10.224;2023-06-26T19:49:52;8.27;;;2.80;;
5491;SDS011;2768;53.540;10.224;2023-06-26T19:55:45;7.90;;;3.17;;
5491;SDS011;2768;53.540;10.224;2023-06-26T20:01:38;5.10;;;2.70;;
5491;SDS011;2768;53.540;10.224;2023-06-26T20:07:37;6.47;;;2.77;;
5491;SDS011;2768;53.540;10.224;2023-06-26T20:13:30;6.80;;;2.50;;
5491;SDS011;2768;53.540;10.224;2023-06-26T20:19:23;16.40;;;3.80;;
5491;SDS011;2768;53.540;10.224;2023-06-26T20:25:19;11.10;;;3.10;;
5491;SDS011;2768;53.540;10.224;2023-06-26T20:31:12;13.47;;;2.90;;
5491;SDS011;2768;53.540;10.224;2023-06-26T20:37:05;8.73;;;2.80;;
5491;SDS011;2768;53.540;10.224;2023-06-26T20:43:01;9.00;;;2.83;;
5491;SDS011;2768;53.540;10.224;2023-06-26T20:48:55;9.03;;;3.30;;
5491;SDS011;2768;53.540;10.224;2023-06-26T20:54:49;8.50;;;3.73;;
5491;SDS011;2768;53.540;10.224;2023-06-26T21:00:44;8.47;;;3.10;;
5491;SDS011;2768;53.540;10.224;2023-06-26T21:06:38;6.83;;;2.80;;
5491;SDS011;2768;53.540;10.224;2023-06-26T21:12:31;6.40;;;2.60;;
5491;SDS011;2768;53.540;10.224;2023-06-26T21:18:25;5.70;;;2.33;;
5491;SDS011;2768;53.540;10.224;2023-06-26T21:24:19;7.57;;;2.60;;
5491;SDS011;2768;53.540;10.224;2023-06-26T21:30:12;12.00;;;3.23;;
5491;SDS011;2768;53.540;10.224;2023-06-26T21:36:08;10.20;;;3.07;;
5491;SDS011;2768;53.540;10.224;2023-06-26T21:42:01;7.97;;;3.30;;
5491;SDS011;2768;53.540;10.224;2023-06-26T21:47:54;11.67;;;3.17;;
5491;SDS011;2768;53.540;10.224;2023-06-26T21:53:49;10.80;;;3.60;;
5491;SDS011;2768;53.540;10.224;2023-06-26T21:59:42;13.00;;;3.80;;
5491;SDS011;2768;53.540;10.224;2023-06-26T22:05:35;12.47;;;3.00;;
5491;SDS011;2768;53.540;10.224;2023-06-26T22:11:30;9.07;;;2.67;;
5491;SDS011;2768;53.540;10.224;2023-06-26T22:17:23;8.30;;;2.60;;
5491;SDS011;2768;53.540;10.224;2023-06-26T22:23:17;10.47;;;3.33;;
5491;SDS011;2768;53.540;10.224;2023-06-26T22:29:11;9.57;;;3.00;;
5491;SDS011;2768;53.540;10.224;2023-06-26T22:35:05;11.37;;;2.93;;
5491;SDS011;2768;53.540;10.224;2023-06-26T22:40:58;8.97;;;2.70;;
5491;SDS011;2768;53.540;10.224;2023-06-26T22:46:53;11.13;;;3.00;;
5491;SDS011;2768;53.540;10.224;2023-06-26T22:52:46;10.20;;;3.13;;
5491;SDS011;2768;53.540;10.224;2023-06-26T22:58:39;13.20;;;3.60;;
5491;SDS011;2768;53.540;10.224;2023-06-26T23:04:34;11.63;;;3.13;;
5491;SDS011;2768;53.540;10.224;2023-06-26T23:10:27;10.40;;;3.00;;
5491;SDS011;2768;53.540;10.224;2023-06-26T23:16:20;10.40;;;3.77;;
5491;SDS011;2768;53.540;10.224;2023-06-26T23:22:15;8.03;;;2.73;;
5491;SDS011;2768;53.540;10.224;2023-06-26T23:28:11;8.87;;;2.37;;
5491;SDS011;2768;53.540;10.224;2023-06-26T23:34:05;9.77;;;2.87;;
5491;SDS011;2768;53.540;10.224;2023-06-26T23:40:01;6.13;;;2.50;;
5491;SDS011;2768;53.540;10.224;2023-06-26T23:45:57;13.80;;;3.90;;
5491;SDS011;2768;53.540;10.224;2023-06-26T23:51:53;14.23;;;4.03;;
5491;SDS011;2768;53.540;10.224;2023-06-26T23:57:48;10.87;;;2.67;;
